Weather at Plovdiv International Airport

Public forecast

Using degrees Celsius for public forecast. Weather courtesy of forecast.io.

Current aviation weather report (METAR) for Plovdiv International Airport

Report is more than 6 hours old.

2024/06/24 21:00 (retrieved 6 hours ago)

LBPD 242100Z AUTO 15007KT 9999 SCT230/// 26/12 Q1013

Aviation forecast (TAF) for Plovdiv International Airport

Forecast is more than 6 hours old.

2024/06/24 18:18 (retrieved 9 hours ago)

TAF LBPD 241700Z 2418/2518 11010KT CAVOK BECMG 2420/2422 VRB04KT BECMG 2507/2509 12010KT